Terminal Aerodrome Forecast
Issued by NWS Twin Cities, MN

Home | Current Version | Previous Version | Graphics & Text | Print | Product List | Glossary On
Versions: 1 2 3 4 5 6 7 8 9 10 11 12 13 14 15 16 17 18 19
389
FTUS43 KMPX 180520
TAFSTC
TAF
KSTC 180520Z 1806/1906 35003KT 5SM BR BKN110
     FM180700 34006KT P6SM BKN150
     FM181300 33008KT P6SM SCT250
     FM181600 33018G26KT P6SM SKC
     FM190200 31012G21KT P6SM SKC=

USA.gov is the U.S. government's official web portal to all federal, state and local government web resources and services.